createdAt,value
2018-07-19T00:01:57.666Z,88.90
2018-07-19T00:04:25.852Z,89.00
2018-07-19T00:06:54.012Z,89.10
2018-07-19T00:09:22.221Z,89.10
2018-07-19T00:11:50.408Z,89.40
2018-07-19T00:14:18.582Z,89.60
2018-07-19T00:16:46.759Z,89.60
2018-07-19T00:19:14.936Z,89.70
2018-07-19T00:21:43.095Z,89.80
2018-07-19T00:24:11.268Z,90.00
2018-07-19T00:26:39.900Z,90.20
2018-07-19T00:29:08.080Z,90.30
2018-07-19T00:31:36.232Z,90.30
2018-07-19T00:34:04.415Z,90.50
2018-07-19T00:36:32.587Z,90.50
2018-07-19T00:39:00.764Z,90.80
2018-07-19T00:41:28.932Z,90.80
2018-07-19T00:43:57.115Z,91.00
2018-07-19T00:46:25.280Z,91.00
2018-07-19T00:48:53.440Z,91.00
2018-07-19T00:51:21.612Z,91.00
2018-07-19T00:53:49.799Z,91.00
2018-07-19T00:56:17.996Z,91.30
2018-07-19T00:58:46.167Z,91.30
2018-07-19T01:03:42.293Z,91.20
2018-07-19T01:06:10.478Z,91.30
2018-07-19T01:08:38.702Z,91.30
2018-07-19T01:11:07.025Z,91.40
2018-07-19T01:13:35.188Z,91.50
2018-07-19T01:16:03.348Z,91.90
2018-07-19T01:18:31.512Z,91.80
2018-07-19T01:20:59.708Z,91.90
2018-07-19T01:23:27.933Z,91.90
2018-07-19T01:25:56.092Z,92.00
2018-07-19T01:28:24.282Z,92.10
2018-07-19T01:30:52.445Z,92.50
2018-07-19T01:33:21.653Z,92.20
2018-07-19T01:35:49.828Z,92.30
2018-07-19T01:38:17.998Z,92.30
2018-07-19T01:40:46.184Z,92.30
2018-07-19T01:43:14.376Z,92.30
2018-07-19T01:45:42.553Z,92.30
2018-07-19T01:48:10.724Z,92.40
2018-07-19T01:50:38.880Z,92.80
2018-07-19T01:53:07.066Z,92.50
2018-07-19T01:55:35.244Z,92.40
2018-07-19T01:58:03.432Z,92.50
2018-07-19T02:00:31.603Z,92.50
2018-07-19T02:03:00.085Z,92.50
2018-07-19T02:05:28.256Z,92.50
2018-07-19T02:07:56.418Z,92.60
2018-07-19T02:10:24.608Z,92.50
2018-07-19T02:12:52.846Z,92.50
2018-07-19T02:15:21.017Z,92.60
2018-07-19T02:17:49.180Z,92.70
2018-07-19T02:20:17.389Z,92.70
2018-07-19T02:22:46.618Z,92.70
2018-07-19T02:25:14.824Z,92.80
2018-07-19T02:27:42.992Z,92.90
2018-07-19T02:30:11.163Z,92.90
2018-07-19T02:32:39.334Z,93.00
2018-07-19T02:35:07.501Z,93.00
2018-07-19T02:37:35.656Z,93.10
2018-07-19T02:40:04.268Z,93.20
2018-07-19T02:42:32.515Z,93.30
2018-07-19T02:45:00.708Z,93.20
2018-07-19T02:47:28.866Z,93.20
2018-07-19T02:49:57.043Z,93.30
2018-07-19T02:52:25.205Z,93.40
2018-07-19T02:54:53.386Z,93.30
2018-07-19T02:57:21.578Z,93.40
2018-07-19T02:59:49.791Z,93.50
2018-07-19T03:02:17.970Z,93.60
2018-07-19T03:04:46.137Z,93.70
2018-07-19T03:07:14.309Z,93.80
2018-07-19T03:09:42.590Z,93.90
2018-07-19T03:12:10.758Z,94.00
2018-07-19T03:14:38.916Z,93.90
2018-07-19T03:17:07.063Z,94.00
2018-07-19T03:19:35.302Z,94.10
2018-07-19T03:22:03.473Z,94.10
2018-07-19T03:24:31.628Z,94.10
2018-07-19T03:26:59.797Z,94.10
2018-07-19T03:29:27.963Z,94.20
2018-07-19T03:31:56.142Z,94.10
2018-07-19T03:34:24.320Z,94.10
2018-07-19T03:36:52.490Z,94.20
2018-07-19T03:39:20.658Z,94.20
2018-07-19T03:41:48.829Z,94.30
2018-07-19T03:44:17.151Z,94.40
2018-07-19T03:46:45.334Z,94.40
2018-07-19T03:49:13.515Z,94.30
2018-07-19T03:51:41.680Z,94.30
2018-07-19T03:54:09.843Z,94.30
2018-07-19T03:57:01.209Z,94.50
2018-07-19T03:59:29.422Z,94.50
2018-07-19T04:01:57.624Z,94.60
2018-07-19T04:04:25.832Z,94.80
2018-07-19T04:06:54.030Z,94.90
2018-07-19T04:09:22.226Z,94.90
2018-07-19T04:11:50.429Z,95.40
2018-07-19T04:14:18.652Z,95.00
2018-07-19T04:16:46.828Z,95.40
2018-07-19T04:19:15.017Z,95.10
2018-07-19T04:21:43.201Z,95.00
2018-07-19T04:24:11.406Z,94.80
2018-07-19T04:26:40.136Z,95.00
2018-07-19T04:29:08.321Z,95.00
2018-07-19T04:31:37.375Z,95.30
2018-07-19T04:34:06.320Z,95.40
2018-07-19T04:36:34.532Z,95.30
2018-07-19T04:39:02.710Z,95.20
2018-07-19T04:41:30.888Z,95.20
2018-07-19T04:43:59.065Z,95.30
2018-07-19T04:46:27.256Z,95.20
2018-07-19T04:48:55.564Z,95.10
2018-07-19T04:51:23.797Z,95.10
2018-07-19T04:53:52.008Z,95.10
2018-07-19T04:56:20.177Z,95.20
2018-07-19T04:58:48.357Z,95.10
2018-07-19T05:01:16.583Z,95.50
2018-07-19T05:03:44.935Z,95.10
2018-07-19T05:06:13.162Z,95.00
2018-07-19T05:08:44.260Z,95.00
2018-07-19T05:11:12.999Z,95.00
2018-07-19T05:13:41.333Z,95.20
2018-07-19T05:16:10.336Z,95.00
2018-07-19T05:18:38.501Z,95.00
2018-07-19T05:21:06.749Z,95.00
2018-07-19T05:23:38.145Z,94.90
2018-07-19T05:26:06.685Z,94.90
2018-07-19T05:28:34.856Z,95.10
2018-07-19T05:31:03.035Z,95.00
2018-07-19T05:33:31.201Z,95.00
2018-07-19T05:35:59.399Z,94.80
2018-07-19T05:38:28.016Z,94.70
2018-07-19T05:40:56.209Z,94.90
2018-07-19T05:43:27.732Z,94.70
2018-07-19T05:45:56.157Z,94.70
2018-07-19T05:48:24.333Z,94.60
2018-07-19T05:50:52.505Z,94.40
2018-07-19T05:53:20.905Z,94.30
2018-07-19T05:55:49.125Z,94.20
2018-07-19T05:58:17.335Z,94.40
2018-07-19T06:00:45.479Z,94.10
2018-07-19T06:03:15.486Z,93.90
2018-07-19T06:05:43.952Z,93.90
2018-07-19T06:08:12.453Z,94.00
2018-07-19T06:10:40.797Z,93.90
2018-07-19T06:13:09.012Z,93.60
2018-07-19T06:15:37.180Z,93.60
2018-07-19T06:18:05.379Z,93.40
2018-07-19T06:20:33.636Z,93.40
2018-07-19T06:25:29.753Z,93.10
2018-07-19T06:27:57.964Z,92.80
2018-07-19T06:30:26.129Z,92.70
2018-07-19T06:32:54.353Z,92.60
2018-07-19T06:35:22.517Z,92.60
2018-07-19T06:37:50.692Z,92.70
2018-07-19T06:40:18.915Z,92.40
2018-07-19T06:42:47.105Z,92.30
2018-07-19T06:45:15.281Z,92.10
2018-07-19T06:47:43.488Z,91.90
2018-07-19T06:50:11.670Z,91.70
2018-07-19T06:52:40.093Z,91.10
2018-07-19T06:55:08.268Z,91.10
2018-07-19T06:57:36.548Z,91.00
2018-07-19T07:00:06.409Z,90.40
2018-07-19T07:02:34.598Z,90.10
2018-07-19T07:05:02.749Z,88.80
2018-07-19T07:07:30.936Z,88.80
2018-07-19T07:09:59.112Z,87.90
2018-07-19T07:12:27.291Z,86.80
2018-07-19T07:14:55.504Z,86.40
2018-07-19T07:17:23.653Z,86.30
2018-07-19T07:19:51.832Z,85.70
2018-07-19T07:22:20.251Z,85.30
2018-07-19T07:24:52.681Z,85.10
2018-07-19T07:27:21.040Z,85.10
2018-07-19T07:29:49.182Z,83.20
2018-07-19T07:32:17.387Z,82.70
2018-07-19T07:34:45.561Z,82.40
2018-07-19T07:37:13.741Z,82.10
2018-07-19T07:39:41.928Z,82.00
2018-07-19T07:42:10.092Z,81.70
2018-07-19T07:44:38.281Z,81.30
2018-07-19T07:47:06.519Z,80.70
2018-07-19T07:49:34.684Z,80.80
2018-07-19T07:52:02.883Z,80.20
2018-07-19T07:54:31.142Z,79.60
2018-07-19T07:56:59.308Z,79.80
2018-07-19T07:59:27.509Z,79.40
2018-07-19T08:01:55.683Z,79.40
2018-07-19T08:04:23.873Z,79.20
2018-07-19T08:06:52.041Z,78.60
2018-07-19T08:09:25.171Z,78.30
2018-07-19T08:11:53.385Z,78.40
2018-07-19T08:14:21.591Z,77.90
2018-07-19T08:16:49.767Z,77.20
2018-07-19T08:19:17.940Z,76.50
2018-07-19T08:21:46.150Z,76.60
2018-07-19T08:24:14.285Z,76.90
2018-07-19T08:26:42.481Z,76.40
2018-07-19T08:29:10.713Z,75.80
2018-07-19T08:31:38.861Z,75.00
2018-07-19T08:34:07.051Z,74.50
2018-07-19T08:36:35.225Z,74.70
2018-07-19T08:39:04.045Z,74.50
2018-07-19T08:41:32.234Z,73.60
2018-07-19T08:44:00.428Z,73.50
2018-07-19T08:46:28.600Z,73.60
2018-07-19T08:48:56.777Z,73.70
2018-07-19T08:51:24.964Z,73.50
2018-07-19T08:53:53.144Z,73.20
2018-07-19T08:56:21.355Z,72.90
2018-07-19T08:58:49.497Z,72.70
2018-07-19T09:01:17.656Z,71.10
2018-07-19T09:03:45.833Z,70.60
2018-07-19T09:06:14.004Z,70.00
2018-07-19T09:08:42.269Z,70.10
2018-07-19T09:11:10.527Z,69.20
2018-07-19T09:13:38.745Z,68.10
2018-07-19T09:16:06.981Z,67.90
2018-07-19T09:18:35.152Z,66.00
2018-07-19T09:21:03.348Z,65.40
2018-07-19T09:23:31.543Z,65.90
2018-07-19T09:25:59.730Z,64.70
2018-07-19T09:28:27.946Z,64.30
2018-07-19T09:30:56.128Z,64.90
2018-07-19T09:33:24.307Z,64.00
2018-07-19T09:35:52.525Z,62.70
2018-07-19T09:38:21.184Z,64.80
2018-07-19T09:40:49.320Z,61.90
2018-07-19T09:43:17.563Z,61.00
2018-07-19T09:45:45.736Z,60.70
2018-07-19T09:48:13.917Z,59.60
2018-07-19T09:50:42.087Z,59.10
2018-07-19T09:53:10.345Z,57.90
2018-07-19T09:55:38.588Z,57.50
2018-07-19T09:58:06.805Z,56.70
2018-07-19T10:00:40.464Z,56.20
2018-07-19T10:03:08.661Z,56.30
2018-07-19T10:05:36.841Z,56.10
2018-07-19T10:08:05.017Z,55.90
2018-07-19T10:10:33.201Z,55.30
2018-07-19T10:13:01.437Z,54.40
2018-07-19T10:15:29.704Z,54.30
2018-07-19T10:17:57.879Z,53.80
2018-07-19T10:20:26.311Z,52.70
2018-07-19T10:22:54.474Z,52.90
2018-07-19T10:25:23.011Z,54.30
2018-07-19T10:27:51.300Z,53.10
2018-07-19T10:30:19.490Z,52.90
2018-07-19T10:32:47.749Z,53.40
2018-07-19T10:35:15.862Z,53.40
2018-07-19T10:37:44.037Z,53.20
2018-07-19T10:40:12.432Z,53.40
2018-07-19T10:42:40.810Z,53.40
2018-07-19T10:45:08.979Z,52.70
2018-07-19T10:47:37.251Z,52.10
2018-07-19T10:50:05.438Z,51.60
2018-07-19T10:52:33.613Z,51.50
2018-07-19T10:55:01.799Z,51.20
2018-07-19T10:57:30.034Z,51.60
2018-07-19T10:59:58.168Z,51.10
2018-07-19T11:02:26.341Z,50.80
2018-07-19T11:04:54.530Z,51.20
2018-07-19T11:07:22.678Z,50.60
2018-07-19T11:09:50.893Z,50.00
2018-07-19T11:12:19.028Z,49.70
2018-07-19T11:14:47.212Z,49.50
2018-07-19T11:17:15.378Z,49.30
2018-07-19T11:19:43.561Z,49.50
2018-07-19T11:22:11.744Z,49.50
2018-07-19T11:24:42.855Z,49.90
2018-07-19T11:27:11.027Z,51.10
2018-07-19T11:29:39.205Z,50.00
2018-07-19T11:32:07.370Z,50.60
2018-07-19T11:34:35.548Z,50.00
2018-07-19T11:37:03.721Z,49.40
2018-07-19T11:39:31.973Z,49.70
2018-07-19T11:42:00.170Z,49.00
2018-07-19T11:44:28.324Z,49.50
2018-07-19T11:46:56.514Z,49.30
2018-07-19T11:49:25.688Z,49.10
2018-07-19T11:51:53.871Z,48.80
2018-07-19T11:54:22.053Z,48.30
2018-07-19T11:56:50.216Z,48.30
2018-07-19T11:59:18.380Z,48.30
2018-07-19T12:01:46.832Z,47.90
2018-07-19T12:04:14.974Z,48.10
2018-07-19T12:06:43.136Z,48.20
2018-07-19T12:09:12.013Z,48.70
2018-07-19T12:11:40.178Z,48.60
2018-07-19T12:14:08.360Z,48.20
2018-07-19T12:16:36.544Z,48.50
2018-07-19T12:19:04.981Z,47.80
2018-07-19T12:21:33.144Z,46.90
2018-07-19T12:24:01.501Z,47.30
2018-07-19T12:26:29.809Z,47.60
2018-07-19T12:28:58.002Z,48.00
2018-07-19T12:31:26.205Z,48.20
2018-07-19T12:33:54.367Z,47.90
2018-07-19T12:36:22.953Z,48.40
2018-07-19T12:38:51.126Z,48.70
2018-07-19T12:41:19.404Z,47.80
2018-07-19T12:43:47.880Z,48.20
2018-07-19T12:46:16.091Z,48.70
2018-07-19T12:48:44.268Z,48.60
2018-07-19T12:51:12.445Z,48.50
2018-07-19T12:53:45.142Z,48.50
2018-07-19T12:56:13.475Z,47.70
2018-07-19T12:58:41.648Z,47.40
2018-07-19T13:01:09.942Z,46.80
2018-07-19T13:03:38.119Z,46.20
2018-07-19T13:06:06.317Z,46.60
2018-07-19T13:08:34.518Z,45.90
2018-07-19T13:11:02.737Z,45.60
2018-07-19T13:13:33.993Z,45.20
2018-07-19T13:16:02.184Z,45.60
2018-07-19T13:18:30.352Z,45.50
2018-07-19T13:20:58.525Z,45.30
2018-07-19T13:23:26.701Z,45.30
2018-07-19T13:25:54.920Z,45.40
2018-07-19T13:28:23.092Z,45.30
2018-07-19T13:30:51.569Z,45.20
2018-07-19T13:33:19.880Z,44.80
2018-07-19T13:35:48.056Z,44.70
2018-07-19T13:38:16.238Z,44.40
2018-07-19T13:40:44.468Z,44.30
2018-07-19T13:43:12.641Z,44.30
2018-07-19T13:45:45.530Z,44.20
2018-07-19T13:48:13.916Z,43.60
2018-07-19T13:50:42.109Z,43.60
2018-07-19T13:53:46.199Z,44.10
2018-07-19T13:56:14.404Z,43.40
2018-07-19T13:58:42.548Z,42.70
2018-07-19T14:01:10.727Z,43.20
2018-07-19T14:03:38.921Z,42.50
2018-07-19T14:06:07.118Z,42.00
2018-07-19T14:08:35.277Z,42.30
2018-07-19T14:11:03.456Z,42.00
2018-07-19T14:13:31.620Z,42.00
2018-07-19T14:15:59.805Z,41.90
2018-07-19T14:18:27.993Z,41.90
2018-07-19T14:20:56.158Z,42.20
2018-07-19T14:23:24.336Z,42.30
2018-07-19T14:25:52.509Z,42.30
2018-07-19T14:28:20.681Z,42.00
2018-07-19T14:30:49.183Z,42.00
2018-07-19T14:33:17.367Z,42.10
2018-07-19T14:35:45.576Z,42.10
2018-07-19T14:38:13.752Z,42.10
2018-07-19T14:40:41.945Z,42.50
2018-07-19T14:43:10.157Z,42.40
2018-07-19T14:45:38.563Z,42.50
2018-07-19T14:48:06.815Z,42.10
2018-07-19T14:50:35.015Z,41.90
2018-07-19T14:53:03.242Z,42.00
2018-07-19T14:55:31.486Z,42.30
2018-07-19T14:57:59.682Z,42.30
2018-07-19T15:00:28.031Z,42.70
2018-07-19T15:02:56.213Z,42.40
2018-07-19T15:05:24.384Z,42.60
2018-07-19T15:07:52.714Z,42.50
2018-07-19T15:10:21.092Z,42.10
2018-07-19T15:12:49.476Z,41.90
2018-07-19T15:15:17.956Z,42.00
2018-07-19T15:17:46.104Z,41.80
2018-07-19T15:20:14.322Z,42.40
2018-07-19T15:22:42.678Z,42.50
2018-07-19T15:25:10.860Z,42.10
2018-07-19T15:27:39.054Z,41.70
2018-07-19T15:30:07.371Z,42.30
2018-07-19T15:32:35.584Z,42.40
2018-07-19T15:35:03.921Z,42.60
2018-07-19T15:37:32.111Z,43.00
2018-07-19T15:40:00.409Z,42.70
2018-07-19T15:42:28.746Z,42.60
2018-07-19T15:44:57.164Z,42.80
2018-07-19T15:47:25.482Z,42.40
2018-07-19T15:49:53.639Z,42.60
2018-07-19T15:52:22.000Z,42.60
2018-07-19T15:54:50.204Z,42.50
2018-07-19T15:57:18.478Z,42.10
2018-07-19T15:59:46.703Z,42.00
2018-07-19T16:02:15.127Z,41.80
2018-07-19T16:04:43.528Z,42.00
2018-07-19T16:07:11.885Z,41.90
2018-07-19T16:09:40.123Z,42.00
2018-07-19T16:12:08.567Z,41.60
2018-07-19T16:14:37.017Z,41.70
2018-07-19T16:17:05.264Z,41.90
2018-07-19T16:19:33.473Z,42.10
2018-07-19T16:22:01.749Z,41.60
2018-07-19T16:24:29.973Z,41.70
2018-07-19T16:26:58.319Z,41.60
2018-07-19T16:29:26.820Z,41.50
2018-07-19T16:31:55.023Z,41.60
2018-07-19T16:34:23.221Z,41.70
2018-07-19T16:36:51.494Z,41.20
2018-07-19T16:39:19.677Z,41.20
2018-07-19T16:41:47.964Z,41.50
2018-07-19T16:44:16.132Z,41.00
2018-07-19T16:46:44.309Z,41.20
2018-07-19T16:49:12.492Z,40.80
2018-07-19T16:51:40.950Z,39.90
2018-07-19T16:54:09.643Z,40.00
2018-07-19T16:56:38.131Z,39.10
2018-07-19T16:59:06.505Z,39.20
2018-07-19T17:01:34.665Z,38.80
2018-07-19T17:04:02.970Z,38.40
2018-07-19T17:06:31.368Z,38.20
2018-07-19T17:08:59.561Z,37.30
2018-07-19T17:11:27.721Z,36.10
2018-07-19T17:13:56.162Z,35.50
2018-07-19T17:16:24.947Z,34.40
2018-07-19T17:18:53.118Z,33.80
2018-07-19T17:21:21.299Z,33.20
2018-07-19T17:23:49.643Z,32.80
2018-07-19T17:26:17.817Z,32.40
2018-07-19T17:28:45.988Z,32.50
2018-07-19T17:31:14.316Z,32.10
2018-07-19T17:33:42.937Z,32.00
2018-07-19T17:36:11.122Z,32.00
2018-07-19T17:38:39.452Z,31.90
2018-07-19T17:41:07.622Z,32.10
2018-07-19T17:43:35.933Z,32.10
2018-07-19T17:46:04.249Z,32.30
2018-07-19T17:48:32.427Z,32.80
2018-07-19T17:51:00.660Z,33.70
2018-07-19T17:53:28.839Z,34.40
2018-07-19T17:55:57.132Z,35.50
2018-07-19T17:58:25.310Z,36.50
2018-07-19T18:00:53.820Z,37.60
2018-07-19T18:03:22.260Z,38.30
2018-07-19T18:05:50.445Z,39.10
2018-07-19T18:08:18.614Z,39.70
2018-07-19T18:10:46.827Z,40.50
2018-07-19T18:13:14.969Z,40.90
2018-07-19T18:15:43.151Z,41.50
2018-07-19T18:18:11.508Z,41.80
2018-07-19T18:20:39.706Z,42.30
2018-07-19T18:23:07.877Z,42.80
2018-07-19T18:25:36.067Z,43.20
2018-07-19T18:28:04.243Z,43.30
2018-07-19T18:30:32.428Z,43.80
2018-07-19T18:33:00.583Z,44.40
2018-07-19T18:35:28.779Z,44.40
2018-07-19T18:37:56.952Z,44.50
2018-07-19T18:40:25.440Z,45.30
2018-07-19T18:42:53.600Z,45.20
2018-07-19T18:45:21.796Z,45.50
2018-07-19T18:47:50.225Z,45.70
2018-07-19T18:50:19.181Z,46.00
2018-07-19T18:52:47.350Z,46.50
2018-07-19T18:55:15.536Z,47.10
2018-07-19T18:57:43.704Z,46.70
2018-07-19T19:00:11.879Z,46.90
2018-07-19T19:02:40.164Z,47.30
2018-07-19T19:05:08.359Z,47.50
2018-07-19T19:07:36.685Z,48.00
2018-07-19T19:10:04.989Z,48.10
2018-07-19T19:12:33.333Z,48.40
2018-07-19T19:15:01.504Z,48.70
2018-07-19T19:17:29.749Z,48.60
2018-07-19T19:19:57.916Z,49.00
2018-07-19T19:22:26.540Z,49.30
2018-07-19T19:24:54.720Z,50.00
2018-07-19T19:27:22.906Z,49.80
2018-07-19T19:29:51.296Z,50.10
2018-07-19T19:32:19.473Z,50.40
2018-07-19T19:34:47.658Z,51.20
2018-07-19T19:37:15.855Z,51.40
2018-07-19T19:39:44.041Z,51.30
2018-07-19T19:42:12.487Z,51.50
2018-07-19T19:44:41.072Z,52.30
2018-07-19T19:47:09.271Z,52.10
2018-07-19T19:49:37.629Z,52.20
2018-07-19T19:52:05.985Z,52.70
2018-07-19T19:54:34.316Z,52.80
2018-07-19T19:57:02.486Z,52.90
2018-07-19T19:59:30.662Z,53.80
2018-07-19T20:01:58.835Z,53.40
2018-07-19T20:04:27.061Z,53.50
2018-07-19T20:06:55.232Z,54.00
2018-07-19T20:09:23.565Z,54.50
2018-07-19T20:11:51.817Z,54.40
2018-07-19T20:16:48.000Z,55.40
2018-07-19T20:19:16.184Z,55.70
2018-07-19T20:21:44.537Z,55.70
2018-07-19T20:24:12.936Z,56.20
2018-07-19T20:26:41.275Z,56.20
2018-07-19T20:29:09.563Z,56.70
2018-07-19T20:31:37.752Z,57.40
2018-07-19T20:34:06.331Z,57.70
2018-07-19T20:36:34.622Z,58.40
2018-07-19T20:39:03.215Z,58.40
2018-07-19T20:41:31.520Z,59.10
2018-07-19T20:43:59.736Z,59.30
2018-07-19T20:46:28.064Z,59.50
2018-07-19T20:48:56.309Z,59.60
2018-07-19T20:51:24.747Z,59.60
2018-07-19T20:53:52.940Z,59.80
2018-07-19T20:56:21.230Z,60.40
2018-07-19T20:58:49.744Z,60.60
2018-07-19T21:01:17.916Z,61.00
2018-07-19T21:03:46.175Z,61.40
2018-07-19T21:06:14.356Z,61.70
2018-07-19T21:08:42.614Z,62.50
2018-07-19T21:11:10.826Z,62.50
2018-07-19T21:13:39.004Z,63.00
2018-07-19T21:16:07.289Z,63.20
2018-07-19T21:18:35.560Z,63.90
2018-07-19T21:21:03.765Z,63.50
2018-07-19T21:23:32.033Z,64.30
2018-07-19T21:26:00.224Z,64.30
2018-07-19T21:28:28.409Z,64.80
2018-07-19T21:30:56.597Z,65.00
2018-07-19T21:33:24.768Z,65.70
2018-07-19T21:38:21.112Z,66.20
2018-07-19T21:40:49.420Z,66.40
2018-07-19T21:43:17.601Z,67.10
2018-07-19T21:45:45.947Z,67.20
2018-07-19T21:48:14.280Z,67.50
2018-07-19T21:50:42.586Z,68.10
2018-07-19T21:53:10.736Z,68.10
2018-07-19T21:55:38.920Z,68.50
2018-07-19T21:58:07.093Z,69.10
2018-07-19T22:00:39.549Z,69.20
2018-07-19T22:03:07.733Z,69.20
2018-07-19T22:05:35.932Z,69.50
2018-07-19T22:08:04.284Z,69.80
2018-07-19T22:10:32.467Z,69.70
2018-07-19T22:13:00.672Z,69.70
2018-07-19T22:15:28.837Z,69.90
2018-07-19T22:17:57.085Z,70.30
2018-07-19T22:20:25.346Z,70.50
2018-07-19T22:22:53.517Z,70.50
2018-07-19T22:25:21.801Z,70.80
2018-07-19T22:27:50.016Z,71.10
2018-07-19T22:30:18.211Z,71.20
2018-07-19T22:32:46.652Z,71.20
2018-07-19T22:35:14.846Z,72.00
2018-07-19T22:37:43.021Z,72.10
2018-07-19T22:40:11.215Z,72.40
2018-07-19T22:42:39.385Z,72.40
2018-07-19T22:45:07.553Z,72.70
2018-07-19T22:47:35.792Z,72.60
2018-07-19T22:50:04.501Z,72.80
2018-07-19T22:52:32.816Z,73.10
2018-07-19T22:55:00.996Z,73.60
2018-07-19T22:57:29.427Z,73.80
2018-07-19T22:59:57.640Z,74.20
2018-07-19T23:02:25.827Z,74.10
2018-07-19T23:04:54.072Z,74.90
2018-07-19T23:07:22.346Z,75.40
2018-07-19T23:09:50.712Z,76.40
2018-07-19T23:12:19.086Z,75.70
2018-07-19T23:14:47.280Z,76.30
2018-07-19T23:17:15.510Z,76.50
2018-07-19T23:19:43.699Z,76.90
2018-07-19T23:22:11.887Z,76.80
2018-07-19T23:24:40.052Z,77.10
2018-07-19T23:27:08.339Z,77.90
2018-07-19T23:29:36.520Z,78.00
2018-07-19T23:32:04.746Z,78.50
2018-07-19T23:34:33.197Z,79.20
2018-07-19T23:37:06.331Z,79.30
2018-07-19T23:42:13.553Z,80.10
2018-07-19T23:44:48.434Z,80.20
2018-07-19T23:47:20.561Z,80.70
2018-07-19T23:49:48.837Z,80.70
2018-07-19T23:52:17.025Z,81.20
2018-07-19T23:54:45.221Z,81.50
2018-07-19T23:57:13.464Z,81.80
2018-07-19T23:59:41.751Z,82.50
